createdAt,value
2019-02-06T00:04:06.523Z,21.40
2019-02-06T00:09:16.274Z,21.40
2019-02-06T00:14:22.792Z,21.40
2019-02-06T00:19:29.923Z,21.40
2019-02-06T00:24:36.253Z,21.40
2019-02-06T00:29:41.621Z,21.40
2019-02-06T00:34:47.812Z,21.40
2019-02-06T00:39:53.382Z,21.40
2019-02-06T00:45:00.316Z,21.40
2019-02-06T00:50:07.492Z,21.40
2019-02-06T00:55:14.777Z,21.30
2019-02-06T01:00:23.221Z,21.40
2019-02-06T01:05:37.823Z,21.30
2019-02-06T01:10:36.362Z,21.30
2019-02-06T01:15:59.275Z,21.30
2019-02-06T01:21:17.680Z,21.30
2019-02-06T01:26:26.312Z,21.30
2019-02-06T01:31:32.421Z,21.30
2019-02-06T01:36:38.171Z,21.30
2019-02-06T01:41:43.998Z,21.30
2019-02-06T01:46:49.943Z,21.20
2019-02-06T01:51:55.666Z,21.20
2019-02-06T01:57:01.434Z,21.20
2019-02-06T02:02:07.698Z,21.20
2019-02-06T02:07:13.515Z,21.20
2019-02-06T02:12:19.242Z,21.20
2019-02-06T02:17:24.931Z,21.20
2019-02-06T02:22:30.693Z,21.20
2019-02-06T02:27:36.591Z,21.10
2019-02-06T02:32:42.371Z,21.20
2019-02-06T02:37:48.252Z,21.20
2019-02-06T02:42:55.052Z,21.10
2019-02-06T02:48:00.772Z,21.20
2019-02-06T02:53:25.312Z,21.20
2019-02-06T02:58:31.281Z,21.20
2019-02-06T03:03:40.582Z,21.20
2019-02-06T03:08:46.633Z,21.20
2019-02-06T03:13:52.412Z,21.20
2019-02-06T03:18:58.279Z,21.20
2019-02-06T03:24:03.951Z,21.20
2019-02-06T03:29:09.723Z,21.30
2019-02-06T03:34:15.313Z,21.30
2019-02-06T03:39:21.132Z,21.30
2019-02-06T03:44:27.213Z,21.30
2019-02-06T03:49:33.022Z,21.30
2019-02-06T03:54:40.511Z,21.30
2019-02-06T03:59:46.342Z,21.30
2019-02-06T04:04:52.072Z,21.40
2019-02-06T04:09:57.851Z,21.40
2019-02-06T04:15:03.866Z,21.40
2019-02-06T04:20:11.071Z,21.40
2019-02-06T04:25:16.951Z,21.40
2019-02-06T04:30:23.602Z,21.40
2019-02-06T04:35:29.532Z,21.40
2019-02-06T04:40:35.281Z,21.50
2019-02-06T04:45:40.972Z,21.50
2019-02-06T04:50:46.751Z,21.50
2019-02-06T04:55:52.723Z,21.50
2019-02-06T05:00:58.618Z,21.50
2019-02-06T05:06:04.332Z,21.50
2019-02-06T05:11:10.692Z,21.50
2019-02-06T05:16:17.682Z,21.60
2019-02-06T05:21:23.443Z,21.50
2019-02-06T05:26:29.223Z,21.60
2019-02-06T05:31:34.951Z,21.60
2019-02-06T05:36:40.813Z,21.60
2019-02-06T05:41:46.602Z,21.60
2019-02-06T05:46:52.552Z,21.60
2019-02-06T05:51:58.351Z,21.70
2019-02-06T05:57:04.076Z,21.70
2019-02-06T06:02:09.733Z,21.70
2019-02-06T06:07:15.913Z,21.70
2019-02-06T06:12:21.811Z,21.70
2019-02-06T06:17:27.612Z,21.70
2019-02-06T06:22:33.422Z,21.70
2019-02-06T06:27:39.432Z,21.70
2019-02-06T06:32:45.462Z,21.80
2019-02-06T06:38:00.724Z,21.80
2019-02-06T06:42:58.463Z,21.80
2019-02-06T06:48:04.343Z,21.80
2019-02-06T06:53:10.213Z,21.80
2019-02-06T06:58:15.924Z,21.80
2019-02-06T07:03:22.182Z,21.80
2019-02-06T07:08:28.001Z,21.80
2019-02-06T07:13:33.802Z,21.80
2019-02-06T07:18:39.525Z,21.80
2019-02-06T07:23:45.380Z,21.90
2019-02-06T07:28:51.350Z,21.90
2019-02-06T07:33:57.111Z,21.90
2019-02-06T07:39:02.861Z,21.90
2019-02-06T07:44:08.560Z,21.90
2019-02-06T07:49:14.571Z,21.90
2019-02-06T07:54:20.703Z,22.00
2019-02-06T07:59:26.921Z,21.90
2019-02-06T08:04:34.170Z,22.00
2019-02-06T08:09:40.833Z,22.00
2019-02-06T08:14:46.982Z,22.00
2019-02-06T08:19:53.408Z,22.00
2019-02-06T08:25:00.303Z,22.00
2019-02-06T08:30:09.342Z,22.00
2019-02-06T08:35:15.536Z,22.00
2019-02-06T08:40:22.782Z,22.10
2019-02-06T08:45:28.805Z,22.10
2019-02-06T08:50:34.542Z,22.10
2019-02-06T08:55:40.182Z,22.10
2019-02-06T09:00:45.912Z,22.10
2019-02-06T09:05:51.852Z,22.20
2019-02-06T09:10:57.642Z,22.20
2019-02-06T09:16:03.541Z,22.20
2019-02-06T09:21:09.331Z,22.20
2019-02-06T09:26:15.142Z,22.20
2019-02-06T09:31:21.711Z,22.20
2019-02-06T09:36:27.672Z,22.20
2019-02-06T09:41:33.676Z,22.20
2019-02-06T09:46:40.472Z,22.20
2019-02-06T09:51:46.491Z,22.20
2019-02-06T09:56:52.312Z,22.20
2019-02-06T10:01:58.203Z,22.20
2019-02-06T10:07:04.163Z,22.20
2019-02-06T10:12:12.059Z,22.20
2019-02-06T10:17:17.702Z,22.20
2019-02-06T10:22:23.582Z,22.30
2019-02-06T10:27:29.863Z,22.20
2019-02-06T10:32:35.304Z,22.20
2019-02-06T10:37:41.242Z,22.20
2019-02-06T10:42:47.512Z,22.30
2019-02-06T10:47:53.568Z,22.30
2019-02-06T10:52:59.763Z,22.40
2019-02-06T10:58:05.493Z,22.40
2019-02-06T11:03:12.803Z,22.40
2019-02-06T11:08:19.212Z,22.50
2019-02-06T11:13:24.883Z,22.50
2019-02-06T11:18:31.012Z,22.60
2019-02-06T11:23:39.117Z,22.60
2019-02-06T11:28:45.392Z,22.60
2019-02-06T11:33:51.771Z,22.70
2019-02-06T11:38:58.502Z,22.70
2019-02-06T11:44:04.723Z,22.80
2019-02-06T11:49:11.502Z,22.80
2019-02-06T11:54:18.193Z,22.80
2019-02-06T11:59:23.773Z,22.80
2019-02-06T12:04:31.101Z,22.80
2019-02-06T12:09:36.852Z,22.90
2019-02-06T12:14:42.472Z,22.80
2019-02-06T12:19:48.372Z,22.90
2019-02-06T12:24:54.473Z,22.80
2019-02-06T12:30:00.401Z,22.80
2019-02-06T12:35:06.482Z,22.80
2019-02-06T12:40:21.228Z,22.80
2019-02-06T12:45:20.013Z,22.80
2019-02-06T12:50:25.972Z,22.90
2019-02-06T12:55:33.591Z,22.80
2019-02-06T13:00:39.952Z,22.80
2019-02-06T13:05:46.537Z,22.80
2019-02-06T13:10:53.972Z,22.80
2019-02-06T13:15:59.534Z,22.80
2019-02-06T13:21:05.612Z,22.80
2019-02-06T13:26:11.822Z,22.80
2019-02-06T13:31:17.643Z,22.80
2019-02-06T13:36:43.632Z,22.80
2019-02-06T13:41:49.652Z,22.80
2019-02-06T13:46:56.092Z,22.80
2019-02-06T13:52:01.993Z,22.80
2019-02-06T13:57:08.178Z,22.80
2019-02-06T14:02:14.142Z,22.90
2019-02-06T14:07:20.713Z,22.90
2019-02-06T14:12:26.672Z,22.80
2019-02-06T14:17:32.751Z,22.80
2019-02-06T14:22:38.335Z,22.80
2019-02-06T14:28:05.576Z,22.80
2019-02-06T14:34:01.603Z,22.80
2019-02-06T14:39:16.740Z,22.70
2019-02-06T14:45:22.633Z,22.70
2019-02-06T14:51:09.272Z,22.70
2019-02-06T14:56:55.413Z,22.70
2019-02-06T15:02:52.613Z,22.70
2019-02-06T15:08:22.553Z,22.70
2019-02-06T15:13:43.901Z,22.70
2019-02-06T15:19:25.906Z,22.70
2019-02-06T15:25:15.341Z,22.80
2019-02-06T15:30:48.213Z,22.80
2019-02-06T15:36:23.692Z,22.80
2019-02-06T15:42:01.512Z,22.70
2019-02-06T15:47:52.812Z,22.80
2019-02-06T15:53:48.306Z,22.70
2019-02-06T15:59:13.545Z,22.80
2019-02-06T16:05:12.632Z,22.80
2019-02-06T16:10:55.282Z,22.80
2019-02-06T16:17:02.881Z,22.80
2019-02-06T16:22:44.752Z,22.80
2019-02-06T16:28:14.442Z,22.80
2019-02-06T16:34:03.972Z,22.80
2019-02-06T16:39:37.391Z,22.80
2019-02-06T16:45:20.021Z,22.70
2019-02-06T16:50:49.848Z,22.80
2019-02-06T16:56:19.591Z,22.70
2019-02-06T17:02:03.048Z,22.70
2019-02-06T17:07:52.381Z,22.80
2019-02-06T17:13:11.660Z,22.70
2019-02-06T17:18:51.592Z,22.70
2019-02-06T17:24:50.342Z,22.70
2019-02-06T17:30:28.062Z,22.70
2019-02-06T17:36:05.391Z,22.70
2019-02-06T17:41:40.132Z,22.70
2019-02-06T17:47:04.327Z,22.70
2019-02-06T17:52:41.261Z,22.60
2019-02-06T17:57:47.545Z,22.70
2019-02-06T18:02:53.502Z,22.60
2019-02-06T18:07:59.465Z,22.70
2019-02-06T18:13:05.541Z,22.60
2019-02-06T18:18:11.492Z,22.60
2019-02-06T18:23:17.891Z,22.60
2019-02-06T18:28:25.303Z,22.60
2019-02-06T18:33:31.182Z,22.60
2019-02-06T18:38:46.361Z,22.60
2019-02-06T18:43:44.221Z,22.60
2019-02-06T18:48:50.142Z,22.60
2019-02-06T18:53:56.092Z,22.60
2019-02-06T18:59:01.991Z,22.50
2019-02-06T19:04:14.264Z,22.50
2019-02-06T19:09:20.361Z,22.50
2019-02-06T19:14:26.052Z,22.50
2019-02-06T19:19:31.942Z,22.50
2019-02-06T19:24:37.961Z,22.40
2019-02-06T19:29:44.160Z,22.50
2019-02-06T19:34:49.943Z,22.40
2019-02-06T19:39:56.101Z,22.40
2019-02-06T19:45:04.563Z,22.40
2019-02-06T19:50:21.283Z,22.40
2019-02-06T19:55:27.211Z,22.40
2019-02-06T20:00:33.642Z,22.40
2019-02-06T20:05:39.942Z,22.40
2019-02-06T20:10:47.520Z,22.40
2019-02-06T20:15:53.532Z,22.30
2019-02-06T20:20:59.926Z,22.30
2019-02-06T20:26:05.981Z,22.30
2019-02-06T20:31:11.711Z,22.30
2019-02-06T20:36:17.637Z,22.30
2019-02-06T20:41:23.632Z,22.30
2019-02-06T20:46:29.555Z,22.30
2019-02-06T20:51:35.522Z,22.20
2019-02-06T20:56:41.813Z,22.20
2019-02-06T21:01:47.722Z,22.20
2019-02-06T21:06:53.522Z,22.20
2019-02-06T21:11:59.311Z,22.20
2019-02-06T21:17:05.281Z,22.10
2019-02-06T21:22:11.421Z,22.00
2019-02-06T21:27:17.341Z,21.90
2019-02-06T21:32:23.342Z,21.90
2019-02-06T21:37:29.161Z,21.80
2019-02-06T21:42:35.733Z,21.80
2019-02-06T21:47:41.703Z,21.70
2019-02-06T21:52:47.592Z,21.70
2019-02-06T21:57:53.782Z,21.70
2019-02-06T22:02:59.692Z,21.70
2019-02-06T22:08:05.812Z,21.60
2019-02-06T22:13:11.692Z,21.60
2019-02-06T22:18:17.572Z,21.50
2019-02-06T22:23:24.462Z,21.50
2019-02-06T22:28:30.782Z,21.50
2019-02-06T22:33:37.042Z,21.40
2019-02-06T22:38:43.511Z,21.40
2019-02-06T22:43:48.908Z,21.40
2019-02-06T22:48:55.143Z,21.30
2019-02-06T22:54:01.329Z,21.40
2019-02-06T22:59:07.415Z,21.30
2019-02-06T23:04:13.683Z,21.30
2019-02-06T23:09:20.343Z,21.30
2019-02-06T23:14:26.146Z,21.30
2019-02-06T23:19:32.192Z,21.20
2019-02-06T23:24:38.582Z,21.20
2019-02-06T23:29:44.824Z,21.20
2019-02-06T23:34:51.171Z,21.20
2019-02-06T23:39:58.532Z,21.20
2019-02-06T23:45:05.332Z,21.20
2019-02-06T23:50:12.587Z,21.20
2019-02-06T23:55:19.901Z,21.20
